^^
Station Historical Data
Daily Summary for January 18, 2018 Units:  Metric    English   Both
« Previous Day
Next Day »
Daily Weekly Monthly Yearly Custom
  High: Low: Average:
Temperature: -17.8 °C 19.2 °C 26.8 °C
Dew Point: -17.8 °C -0.1 °C 9.1 °C
Humidity: Humidity% 14% 35%
Wind Speed: 0km/h 0km/h 11.6km/h
Wind Gust: 0km/h - -
Wind- - SSW
Pressure: 0 hPa 1001.9 hPa -
Precipitation: 0 mm    
Historical Graphs
 
 
Tabular Data for January 18, 2018
Time Temperature Dew Point Pressure Wind Wind Speed Wind Gust Humidity Rainfall Rate (Hourly) solar Conditions
-17.8 °C -17.8 °C 0 hPa Calm     Humidity% 0 mm SolarRadiationWatts/m^2 W/m2 Conditions
03:27 19.9 °C 8.9 °C 1007.3 hPa Calm     49% 0 mm 0.0 W/m2
03:33 19.8 °C 8.8 °C 1007 hPa Calm     49% 0 mm 0.0 W/m2
03:38 19.6 °C 8.3 °C 1006.7 hPa Calm     48% 0 mm 0.0 W/m2
03:43 19.4 °C 8.4 °C 1007 hPa Calm     49% 0 mm 0.0 W/m2
03:48 19.4 °C 8.7 °C 1006.7 hPa Calm     50% 0 mm 0.0 W/m2
03:53 19.4 °C 8.7 °C 1006.7 hPa Calm     50% 0 mm 0.0 W/m2
03:59 19.3 °C 8.6 °C 1006.7 hPa Calm     50% 0 mm 0.0 W/m2
04:04 19.2 °C 8.5 °C 1006.7 hPa Calm     50% 0 mm 0.0 W/m2
04:09 19.2 °C 8.5 °C 1006.7 hPa Calm     50% 0 mm 0.0 W/m2
04:15 19.2 °C 8.8 °C 1006.7 hPa Calm     51% 0 mm 0.0 W/m2
04:21 19.2 °C 8.8 °C 1007 hPa Calm     51% 0 mm 0.0 W/m2
04:30 19.3 °C 8.9 °C 1007 hPa Calm     51% 0 mm 0.0 W/m2
04:35 19.4 °C 9 °C 1007.3 hPa Calm     51% 0 mm 0.0 W/m2
04:41 19.5 °C 9.1 °C 1007 hPa Calm     51% 0 mm 0.0 W/m2
04:47 19.6 °C 9.2 °C 1007 hPa Calm     51% 0 mm 0.0 W/m2
04:52 19.6 °C 8.9 °C 1007 hPa Calm     50% 0 mm 0.0 W/m2
04:57 19.7 °C 9.3 °C 1007 hPa Calm     51% 0 mm 0.0 W/m2
05:02 19.8 °C 9.1 °C 1007 hPa Calm     50% 0 mm 0.0 W/m2
05:07 19.8 °C 8.8 °C 1007 hPa Calm     49% 0 mm 0.0 W/m2
05:12 19.6 °C 8.6 °C 1007 hPa Calm     49% 0 mm 0.0 W/m2
05:17 19.4 °C 8.7 °C 1007 hPa Calm     50% 0 mm 0.0 W/m2
05:27 19.3 °C 8.9 °C 1007 hPa Calm     51% 0 mm 0.0 W/m2
05:38 19.2 °C 9.1 °C 1007 hPa Calm     52% 0 mm 0.0 W/m2
05:43 19.2 °C 9.1 °C 1007 hPa Calm     52% 0 mm 0.0 W/m2
05:48 19.2 °C 9.1 °C 1007 hPa Calm     52% 0 mm 0.0 W/m2
05:53 19.3 °C 8.9 °C 1007 hPa SSW 9.7 km/h 9.7 km/h 51% 0 mm 0.0 W/m2
05:58 19.4 °C 8.4 °C 1007 hPa South 7.9 km/h 9.7 km/h 49% 0 mm 0.0 W/m2
06:03 19.6 °C 8 °C 1007 hPa South 4.7 km/h 8 km/h 47% 0 mm 0.0 W/m2
06:08 19.7 °C 7.8 °C 1007 hPa Calm     46% 0 mm 0.0 W/m2
06:14 19.9 °C 7.6 °C 1007.3 hPa Calm     45% 0 mm 5.0 W/m2
06:19 20 °C 7.7 °C 1007.3 hPa Calm     45% 0 mm 9.0 W/m2
06:29 20.2 °C 8.2 °C 1007.3 hPa Calm     46% 0 mm 16.0 W/m2
06:34 20.4 °C 8.1 °C 1007.3 hPa Calm     45% 0 mm 23.0 W/m2
06:39 20.9 °C 8.5 °C 1007.3 hPa Calm     45% 0 mm 21.0 W/m2
06:49 21.8 °C 9 °C 1007.3 hPa Calm     44% 0 mm 54.0 W/m2
06:54 22.2 °C 9 °C 1007.3 hPa Calm     43% 0 mm 70.0 W/m2
06:59 22.9 °C 9.3 °C 1007.3 hPa SSE 11.1 km/h 11.3 km/h 42% 0 mm 91.0 W/m2
07:04 23.5 °C 9.8 °C 1007.7 hPa SSE 9.7 km/h 14.5 km/h 42% 0 mm 111.0 W/m2
07:09 23.9 °C 9.8 °C 1007.7 hPa Calm     41% 0 mm 130.0 W/m2
07:15 24.2 °C 10.1 °C 1007.7 hPa SE 7.9 km/h 12.9 km/h 41% 0 mm 151.0 W/m2
07:20 24.4 °C 10.3 °C 1007.7 hPa ESE 6.4 km/h 14.5 km/h 41% 0 mm 172.0 W/m2
07:25 24.7 °C 10.2 °C 1007.7 hPa East 13 km/h 16.1 km/h 40% 0 mm 188.0 W/m2
07:30 25 °C 10.5 °C 1007.7 hPa ENE 6.4 km/h 11.3 km/h 40% 0 mm 207.0 W/m2
07:40 25.3 °C 10.3 °C 1007.7 hPa NE 6.4 km/h 16.1 km/h 39% 0 mm 237.0 W/m2
07:45 25.5 °C 10.5 °C 1007.7 hPa NE 7.9 km/h 17.7 km/h 39% 0 mm 260.0 W/m2
07:50 25.7 °C 10.7 °C 1007.7 hPa NE 13 km/h 17.7 km/h 39% 0 mm 274.0 W/m2
07:55 25.9 °C 11.6 °C 1007.7 hPa NNE 9.7 km/h 19.3 km/h 41% 0 mm 287.0 W/m2
08:00 26.2 °C 11.9 °C 1007.3 hPa NNE 13 km/h 20.9 km/h 41% 0 mm 308.0 W/m2
08:05 26.3 °C 12 °C 1007.7 hPa NNE 9.7 km/h 19.3 km/h 41% 0 mm 327.0 W/m2
08:11 26.7 °C 13.1 °C 1007.7 hPa North 19.5 km/h 32.2 km/h 43% 0 mm 346.0 W/m2
08:16 26.7 °C 13.1 °C 1007.3 hPa North 17.7 km/h 27.4 km/h 43% 0 mm 362.0 W/m2
08:21 26.8 °C 13.2 °C 1007.3 hPa North 16.3 km/h 27.4 km/h 43% 0 mm 376.0 W/m2
08:26 26.9 °C 12.9 °C 1007.3 hPa NNE 16.3 km/h 29 km/h 42% 0 mm 399.0 W/m2
08:31 27.2 °C 13.5 °C 1007.3 hPa NNE 20.9 km/h 32.2 km/h 43% 0 mm 408.0 W/m2
08:37 27.5 °C 13.4 °C 1007 hPa NNE 16.3 km/h 27.4 km/h 42% 0 mm 431.0 W/m2
08:42 27.9 °C 13.4 °C 1007 hPa NNE 30.6 km/h 30.6 km/h 41% 0 mm 448.0 W/m2
08:48 27.8 °C 13.3 °C 1007 hPa North 20.9 km/h 27.4 km/h 41% 0 mm 466.0 W/m2
08:54 27.9 °C 13.1 °C 1007 hPa North 24.1 km/h 29 km/h 40% 0 mm 487.0 W/m2
09:16 28.6 °C 13.3 °C 1007 hPa NNW 7.9 km/h 24.1 km/h 39% 0 mm 548.0 W/m2
09:45 29.6 °C 13.4 °C 1007 hPa NNW 13 km/h 29 km/h 37% 0 mm 647.0 W/m2
09:55 30 °C 13.7 °C 1007 hPa North 24.1 km/h 27.4 km/h 37% 0 mm 670.0 W/m2
10:05 30.3 °C 13.1 °C 1006.7 hPa North 17.7 km/h 29 km/h 35% 0 mm 698.0 W/m2
10:16 30.9 °C 13.2 °C 1006.7 hPa NNW 17.7 km/h 27.4 km/h 34% 0 mm 728.0 W/m2
10:25 31.3 °C 12.6 °C 1006.7 hPa NNW 19.5 km/h 25.7 km/h 32% 0 mm 756.0 W/m2
10:35 31.7 °C 13 °C 1006.7 hPa NNW 28.8 km/h 32.2 km/h 32% 0 mm 777.0 W/m2
10:47 31.7 °C 13 °C 1006.3 hPa NNW 22.7 km/h 33.8 km/h 32% 0 mm 803.0 W/m2
11:02 32.5 °C 12.7 °C 1006.3 hPa NNW 22.7 km/h 33.8 km/h 30% 0 mm 835.0 W/m2
11:17 32.8 °C 12.4 °C 1006.3 hPa NNW 7.9 km/h 29 km/h 29% 0 mm 861.0 W/m2
11:32 33.6 °C 12.6 °C 1006.3 hPa NW 20.9 km/h 35.4 km/h 28% 0 mm 893.0 W/m2
11:47 33.9 °C 12.3 °C 1006 hPa NNW 20.9 km/h 24.1 km/h 27% 0 mm 912.0 W/m2
12:02 34.4 °C 12.1 °C 1006 hPa NNW 19.5 km/h 24.1 km/h 26% 0 mm 928.0 W/m2
12:15 35.6 °C 11.9 °C 1005.6 hPa NNW 24.1 km/h 25.7 km/h 24% 0 mm 944.0 W/m2
12:24 35.7 °C 11.4 °C 1005.6 hPa Calm   24.1 km/h 23% 0 mm 956.0 W/m2
12:35 35.3 °C 11.7 °C 1005.3 hPa North 9.7 km/h 20.9 km/h 24% 0 mm 954.0 W/m2
12:44 35.8 °C 11.4 °C 1005.3 hPa NW 22.7 km/h 29 km/h 23% 0 mm 963.0 W/m2
12:49 35.9 °C 11.5 °C 1005.3 hPa NW 19.5 km/h 22.5 km/h 23% 0 mm 963.0 W/m2
13:07 36.6 °C 10.7 °C 1005 hPa NNW 24.1 km/h 29 km/h 21% 0 mm 967.0 W/m2
13:20 36.5 °C 10.6 °C 1004.6 hPa NNE 7.9 km/h 27.4 km/h 21% 0 mm 960.0 W/m2
13:30 36.9 °C 11 °C 1004.6 hPa NNW 19.5 km/h 22.5 km/h 21% 0 mm 960.0 W/m2
13:38 37.2 °C 10.5 °C 1004.6 hPa NNW 17.7 km/h 25.7 km/h 20% 0 mm 954.0 W/m2
13:47 37.4 °C 9.9 °C 1004.3 hPa NW 11.1 km/h 11.3 km/h 19% 0 mm 949.0 W/m2
13:52 37.6 °C 9.2 °C 1004.3 hPa NW 19.5 km/h 29 km/h 18% 0 mm 944.0 W/m2
13:57 37.8 °C 9.4 °C 1004.3 hPa North 1.4 km/h 22.5 km/h 18% 0 mm 940.0 W/m2
14:03 37.9 °C 9.5 °C 1004.3 hPa NNW 7.9 km/h 22.5 km/h 18% 0 mm 937.0 W/m2
14:08 38.1 °C 8.8 °C 1003.9 hPa NNW 7.9 km/h 12.9 km/h 17% 0 mm 930.0 W/m2
14:19 37.9 °C 9.5 °C 1003.9 hPa NW 1.4 km/h 14.5 km/h 18% 0 mm 911.0 W/m2
14:52 39 °C 6.7 °C 1003.3 hPa NNW 6.4 km/h 11.3 km/h 14% 0 mm 868.0 W/m2
15:03 39 °C 7.7 °C 1002.9 hPa Calm   14.5 km/h 15% 0 mm 847.0 W/m2
15:59 39.5 °C 8.1 °C 1001.9 hPa Calm   12.9 km/h 15% 0 mm 777.0 W/m2
16:46 36.2 °C 7.3 °C 1002.3 hPa SW 33.8 km/h 43.5 km/h 17% 0 mm 104.0 W/m2
17:01 35.2 °C 6.5 °C 1002.6 hPa SSW 28.8 km/h 41.8 km/h 17% 0 mm 153.0 W/m2
17:14 35.3 °C 6.5 °C 1002.3 hPa SSW 24.1 km/h 35.4 km/h 17% 0 mm 162.0 W/m2
17:32 35.4 °C 7.5 °C 1002.6 hPa SSW 25.9 km/h 37 km/h 18% 0 mm 461.0 W/m2
17:45 35.4 °C 7.5 °C 1002.3 hPa SSW 28.8 km/h 37 km/h 18% 0 mm 185.0 W/m2
18:00 34.7 °C 6.9 °C 1002.6 hPa SSW 22.7 km/h 38.6 km/h 18% 0 mm 169.0 W/m2
18:15 34.5 °C 7.5 °C 1002.6 hPa SSW 28.8 km/h 33.8 km/h 19% 0 mm 258.0 W/m2
18:31 34.4 °C 7.4 °C 1002.9 hPa South 27.4 km/h 32.2 km/h 19% 0 mm 320.0 W/m2
18:45 33.7 °C 9 °C 1003.3 hPa SSW 32 km/h 33.8 km/h 22% 0 mm 243.0 W/m2
19:01 32.9 °C 9 °C 1002.9 hPa South 32 km/h 40.2 km/h 23% 0 mm 148.0 W/m2
19:15 32.2 °C 9.7 °C 1003.6 hPa SSW 28.8 km/h 35.4 km/h 25% 0 mm 76.0 W/m2
19:45 30.4 °C 9.3 °C 1003.9 hPa SSW 19.5 km/h 33.8 km/h 27% 0 mm 16.0 W/m2
19:59 29.8 °C 8.2 °C 1004.6 hPa SSW 24.1 km/h 35.4 km/h 26% 0 mm 0.0 W/m2
20:14 29.3 °C 6.6 °C 1005 hPa SSW 27.4 km/h 35.4 km/h 24% 0 mm 0.0 W/m2
20:25 28.9 °C 5.7 °C 1005.6 hPa SSW 20.9 km/h 27.4 km/h 23% 0 mm 0.0 W/m2
20:39 28.5 °C 2.6 °C 1006 hPa SSW 24.1 km/h 33.8 km/h 19% 0 mm 0.0 W/m2
20:51 28.3 °C 1.7 °C 1006.3 hPa SSW 22.7 km/h 30.6 km/h 18% 0 mm 0.0 W/m2
21:07 28.1 °C -0.1 °C 1007.3 hPa South 19.5 km/h 20.9 km/h 16% 0 mm 0.0 W/m2
21:40 27.6 °C 0.3 °C 1008 hPa South 9.7 km/h 12.9 km/h 17% 0 mm 0.0 W/m2
22:25 25.6 °C 5.2 °C 1008.7 hPa SSW 11.1 km/h 16.1 km/h 27% 0 mm 0.0 W/m2
22:35 25.2 °C 5.4 °C 1008.7 hPa SSW 9.7 km/h 14.5 km/h 28% 0 mm 0.0 W/m2
22:51 24.8 °C 6.5 °C 1008.7 hPa SSW 14.3 km/h 16.1 km/h 31% 0 mm 0.0 W/m2
23:02 24.3 °C 7 °C 1008.4 hPa SSW 17.7 km/h 17.7 km/h 33% 0 mm 0.0 W/m2
23:11 24.1 °C 6.8 °C 1008.4 hPa SSW 14.3 km/h 14.5 km/h 33% 0 mm 0.0 W/m2
23:16 24 °C 7.2 °C 1008.4 hPa SSW 13 km/h 16.1 km/h 34% 0 mm 0.0 W/m2
23:26 23.7 °C 7.7 °C 1008.4 hPa SSW 11.1 km/h 12.9 km/h 36% 0 mm 0.0 W/m2
23:31 23.5 °C 7.6 °C 1008.4 hPa SSW 11.1 km/h 17.7 km/h 36% 0 mm 0.0 W/m2
23:36 23.4 °C 7.9 °C 1008.4 hPa SSW 17.7 km/h 17.7 km/h 37% 0 mm 0.0 W/m2
23:41 23.3 °C 7.8 °C 1008.4 hPa SSW 13 km/h 13 km/h 37% 0 mm 0.0 W/m2
23:46 23.2 °C 8.1 °C 1008.4 hPa SSW 9.7 km/h 14.5 km/h 38% 0 mm 0.0 W/m2
23:51 23.2 °C 8.1 °C 1008.4 hPa SSW 9.7 km/h 11.3 km/h 38% 0 mm 0.0 W/m2
23:56 23.1 °C 8 °C 1008.4 hPa SSW 9.7 km/h 14.5 km/h 38% 0 mm 0.0 W/m2
Canyon Roadhouse, Fishriver Canyon, Namibia
Compliments of Weather Underground - 2.25 mb